sensor_id;sensor_type;location;lat;lon;timestamp;P1;durP1;ratioP1;P2;durP2;ratioP2
3689;SDS011;1861;50.240;8.596;2023-10-19T00:00:55;5.80;;;4.20;;
3689;SDS011;1861;50.240;8.596;2023-10-19T00:03:23;12.83;;;4.80;;
3689;SDS011;1861;50.240;8.596;2023-10-19T00:05:51;6.60;;;4.53;;
3689;SDS011;1861;50.240;8.596;2023-10-19T00:08:21;6.60;;;4.50;;
3689;SDS011;1861;50.240;8.596;2023-10-19T00:10:50;6.70;;;4.73;;
3689;SDS011;1861;50.240;8.596;2023-10-19T00:13:31;5.97;;;4.70;;
3689;SDS011;1861;50.240;8.596;2023-10-19T00:16:02;9.47;;;5.10;;
3689;SDS011;1861;50.240;8.596;2023-10-19T00:18:37;9.77;;;5.10;;
3689;SDS011;1861;50.240;8.596;2023-10-19T00:21:09;7.63;;;5.23;;
3689;SDS011;1861;50.240;8.596;2023-10-19T00:23:46;6.30;;;4.43;;
3689;SDS011;1861;50.240;8.596;2023-10-19T00:26:16;5.63;;;4.37;;
3689;SDS011;1861;50.240;8.596;2023-10-19T00:28:56;10.70;;;6.60;;
3689;SDS011;1861;50.240;8.596;2023-10-19T00:31:26;7.07;;;5.03;;
3689;SDS011;1861;50.240;8.596;2023-10-19T00:33:56;7.13;;;5.23;;
3689;SDS011;1861;50.240;8.596;2023-10-19T00:36:24;9.23;;;4.53;;
3689;SDS011;1861;50.240;8.596;2023-10-19T00:38:54;10.00;;;5.23;;
3689;SDS011;1861;50.240;8.596;2023-10-19T00:41:24;7.10;;;5.17;;
3689;SDS011;1861;50.240;8.596;2023-10-19T00:43:56;8.07;;;4.73;;
3689;SDS011;1861;50.240;8.596;2023-10-19T00:46:29;10.20;;;5.33;;
3689;SDS011;1861;50.240;8.596;2023-10-19T00:49:01;6.90;;;5.10;;
3689;SDS011;1861;50.240;8.596;2023-10-19T00:51:34;8.37;;;5.50;;
3689;SDS011;1861;50.240;8.596;2023-10-19T00:54:19;6.60;;;4.80;;
3689;SDS011;1861;50.240;8.596;2023-10-19T00:56:53;7.13;;;4.70;;
3689;SDS011;1861;50.240;8.596;2023-10-19T00:59:25;7.33;;;4.70;;
3689;SDS011;1861;50.240;8.596;2023-10-19T01:01:56;6.20;;;4.50;;
3689;SDS011;1861;50.240;8.596;2023-10-19T01:04:43;6.40;;;4.83;;
3689;SDS011;1861;50.240;8.596;2023-10-19T01:07:12;8.37;;;4.73;;
3689;SDS011;1861;50.240;8.596;2023-10-19T01:09:50;6.87;;;4.77;;
3689;SDS011;1861;50.240;8.596;2023-10-19T01:12:21;5.40;;;4.30;;
3689;SDS011;1861;50.240;8.596;2023-10-19T01:15:01;5.77;;;4.17;;
3689;SDS011;1861;50.240;8.596;2023-10-19T01:17:33;6.10;;;4.17;;
3689;SDS011;1861;50.240;8.596;2023-10-19T01:20:07;5.87;;;4.10;;
3689;SDS011;1861;50.240;8.596;2023-10-19T01:22:51;5.70;;;3.90;;
3689;SDS011;1861;50.240;8.596;2023-10-19T01:25:44;5.50;;;4.10;;
3689;SDS011;1861;50.240;8.596;2023-10-19T01:28:17;5.80;;;4.20;;
3689;SDS011;1861;50.240;8.596;2023-10-19T01:30:45;5.93;;;4.13;;
3689;SDS011;1861;50.240;8.596;2023-10-19T01:33:18;6.30;;;4.50;;
3689;SDS011;1861;50.240;8.596;2023-10-19T01:35:47;7.13;;;4.17;;
3689;SDS011;1861;50.240;8.596;2023-10-19T01:38:34;4.73;;;3.80;;
3689;SDS011;1861;50.240;8.596;2023-10-19T01:41:03;4.33;;;3.80;;
3689;SDS011;1861;50.240;8.596;2023-10-19T01:43:40;4.97;;;3.53;;
3689;SDS011;1861;50.240;8.596;2023-10-19T01:46:10;3.93;;;2.90;;
3689;SDS011;1861;50.240;8.596;2023-10-19T01:48:39;4.33;;;3.40;;
3689;SDS011;1861;50.240;8.596;2023-10-19T01:51:08;3.40;;;3.10;;
3689;SDS011;1861;50.240;8.596;2023-10-19T01:53:38;5.37;;;3.87;;
3689;SDS011;1861;50.240;8.596;2023-10-19T01:56:09;4.17;;;3.77;;
3689;SDS011;1861;50.240;8.596;2023-10-19T01:58:37;3.70;;;3.10;;
3689;SDS011;1861;50.240;8.596;2023-10-19T02:01:06;5.13;;;3.30;;
3689;SDS011;1861;50.240;8.596;2023-10-19T02:03:35;3.50;;;3.03;;
3689;SDS011;1861;50.240;8.596;2023-10-19T02:06:08;4.70;;;2.63;;
3689;SDS011;1861;50.240;8.596;2023-10-19T02:08:46;4.43;;;3.00;;
3689;SDS011;1861;50.240;8.596;2023-10-19T02:11:19;3.10;;;2.80;;
3689;SDS011;1861;50.240;8.596;2023-10-19T02:13:48;4.53;;;3.10;;
3689;SDS011;1861;50.240;8.596;2023-10-19T02:16:17;3.07;;;2.80;;
3689;SDS011;1861;50.240;8.596;2023-10-19T02:18:48;2.60;;;2.27;;
3689;SDS011;1861;50.240;8.596;2023-10-19T02:21:18;3.03;;;2.60;;
3689;SDS011;1861;50.240;8.596;2023-10-19T02:23:50;3.30;;;2.57;;
3689;SDS011;1861;50.240;8.596;2023-10-19T02:26:18;8.00;;;3.17;;
3689;SDS011;1861;50.240;8.596;2023-10-19T02:28:46;3.53;;;2.90;;
3689;SDS011;1861;50.240;8.596;2023-10-19T02:31:17;2.37;;;2.17;;
3689;SDS011;1861;50.240;8.596;2023-10-19T02:33:46;3.17;;;2.60;;
3689;SDS011;1861;50.240;8.596;2023-10-19T02:36:18;3.33;;;2.40;;
3689;SDS011;1861;50.240;8.596;2023-10-19T02:38:46;4.70;;;3.10;;
3689;SDS011;1861;50.240;8.596;2023-10-19T02:41:20;2.97;;;2.63;;
3689;SDS011;1861;50.240;8.596;2023-10-19T02:43:48;2.97;;;2.47;;
3689;SDS011;1861;50.240;8.596;2023-10-19T02:46:18;2.70;;;2.50;;
3689;SDS011;1861;50.240;8.596;2023-10-19T02:48:47;3.57;;;3.00;;
3689;SDS011;1861;50.240;8.596;2023-10-19T02:51:16;2.77;;;2.50;;
3689;SDS011;1861;50.240;8.596;2023-10-19T02:53:45;3.30;;;2.43;;
3689;SDS011;1861;50.240;8.596;2023-10-19T02:56:14;3.50;;;3.20;;
3689;SDS011;1861;50.240;8.596;2023-10-19T02:58:46;3.50;;;3.20;;
3689;SDS011;1861;50.240;8.596;2023-10-19T03:01:16;2.93;;;2.50;;
3689;SDS011;1861;50.240;8.596;2023-10-19T03:03:49;3.70;;;3.10;;
3689;SDS011;1861;50.240;8.596;2023-10-19T03:06:20;2.60;;;2.40;;
3689;SDS011;1861;50.240;8.596;2023-10-19T03:08:48;4.03;;;3.17;;
3689;SDS011;1861;50.240;8.596;2023-10-19T03:11:24;4.40;;;3.40;;
3689;SDS011;1861;50.240;8.596;2023-10-19T03:13:53;5.13;;;3.73;;
3689;SDS011;1861;50.240;8.596;2023-10-19T03:16:23;6.13;;;3.90;;
3689;SDS011;1861;50.240;8.596;2023-10-19T03:18:51;6.13;;;4.03;;
3689;SDS011;1861;50.240;8.596;2023-10-19T03:21:21;5.03;;;4.20;;
3689;SDS011;1861;50.240;8.596;2023-10-19T03:23:53;7.10;;;4.27;;
3689;SDS011;1861;50.240;8.596;2023-10-19T03:26:23;6.87;;;4.53;;
3689;SDS011;1861;50.240;8.596;2023-10-19T03:28:58;5.27;;;4.13;;
3689;SDS011;1861;50.240;8.596;2023-10-19T03:31:34;6.33;;;4.27;;
3689;SDS011;1861;50.240;8.596;2023-10-19T03:34:10;7.30;;;4.07;;
3689;SDS011;1861;50.240;8.596;2023-10-19T03:36:39;7.33;;;4.70;;
3689;SDS011;1861;50.240;8.596;2023-10-19T03:39:08;5.23;;;3.80;;
3689;SDS011;1861;50.240;8.596;2023-10-19T03:41:43;5.20;;;3.80;;
3689;SDS011;1861;50.240;8.596;2023-10-19T03:44:13;6.67;;;4.87;;
3689;SDS011;1861;50.240;8.596;2023-10-19T03:46:45;6.67;;;4.20;;
3689;SDS011;1861;50.240;8.596;2023-10-19T03:49:30;6.90;;;3.97;;
3689;SDS011;1861;50.240;8.596;2023-10-19T03:52:03;10.70;;;5.17;;
3689;SDS011;1861;50.240;8.596;2023-10-19T03:54:48;7.33;;;4.80;;
3689;SDS011;1861;50.240;8.596;2023-10-19T03:57:17;9.17;;;4.47;;
3689;SDS011;1861;50.240;8.596;2023-10-19T03:59:52;6.73;;;4.47;;
3689;SDS011;1861;50.240;8.596;2023-10-19T04:02:23;6.83;;;4.73;;
3689;SDS011;1861;50.240;8.596;2023-10-19T04:04:52;8.80;;;5.10;;
3689;SDS011;1861;50.240;8.596;2023-10-19T04:07:22;8.70;;;4.73;;
3689;SDS011;1861;50.240;8.596;2023-10-19T04:09:54;9.60;;;5.00;;
3689;SDS011;1861;50.240;8.596;2023-10-19T04:12:37;17.77;;;6.40;;
3689;SDS011;1861;50.240;8.596;2023-10-19T04:15:10;17.17;;;8.10;;
3689;SDS011;1861;50.240;8.596;2023-10-19T04:17:42;12.20;;;6.37;;
3689;SDS011;1861;50.240;8.596;2023-10-19T04:20:11;16.63;;;6.80;;
3689;SDS011;1861;50.240;8.596;2023-10-19T04:22:55;14.30;;;6.53;;
3689;SDS011;1861;50.240;8.596;2023-10-19T04:25:32;11.33;;;5.63;;
3689;SDS011;1861;50.240;8.596;2023-10-19T04:28:00;19.50;;;6.57;;
3689;SDS011;1861;50.240;8.596;2023-10-19T04:30:30;19.63;;;8.13;;
3689;SDS011;1861;50.240;8.596;2023-10-19T04:32:59;19.70;;;8.30;;
3689;SDS011;1861;50.240;8.596;2023-10-19T04:35:28;22.57;;;8.00;;
3689;SDS011;1861;50.240;8.596;2023-10-19T04:37:58;20.90;;;8.23;;
3689;SDS011;1861;50.240;8.596;2023-10-19T04:40:27;28.33;;;8.30;;
3689;SDS011;1861;50.240;8.596;2023-10-19T04:42:55;24.47;;;10.13;;
3689;SDS011;1861;50.240;8.596;2023-10-19T04:45:24;23.57;;;9.70;;
3689;SDS011;1861;50.240;8.596;2023-10-19T04:47:53;22.93;;;8.23;;
3689;SDS011;1861;50.240;8.596;2023-10-19T04:50:22;24.40;;;9.63;;
3689;SDS011;1861;50.240;8.596;2023-10-19T04:52:50;22.40;;;10.13;;
3689;SDS011;1861;50.240;8.596;2023-10-19T04:55:18;27.17;;;9.33;;
3689;SDS011;1861;50.240;8.596;2023-10-19T04:57:47;18.53;;;8.90;;
3689;SDS011;1861;50.240;8.596;2023-10-19T05:00:16;25.50;;;10.87;;
3689;SDS011;1861;50.240;8.596;2023-10-19T05:02:47;18.27;;;8.60;;
3689;SDS011;1861;50.240;8.596;2023-10-19T05:05:20;23.63;;;10.70;;
3689;SDS011;1861;50.240;8.596;2023-10-19T05:07:48;22.67;;;9.10;;
3689;SDS011;1861;50.240;8.596;2023-10-19T05:10:16;21.80;;;9.07;;
3689;SDS011;1861;50.240;8.596;2023-10-19T05:12:46;20.87;;;9.73;;
3689;SDS011;1861;50.240;8.596;2023-10-19T05:15:14;25.93;;;10.57;;
3689;SDS011;1861;50.240;8.596;2023-10-19T05:17:44;24.90;;;10.97;;
3689;SDS011;1861;50.240;8.596;2023-10-19T05:20:13;21.00;;;9.53;;
3689;SDS011;1861;50.240;8.596;2023-10-19T05:22:42;22.83;;;9.87;;
3689;SDS011;1861;50.240;8.596;2023-10-19T05:25:10;28.43;;;11.17;;
3689;SDS011;1861;50.240;8.596;2023-10-19T05:27:38;25.23;;;10.10;;
3689;SDS011;1861;50.240;8.596;2023-10-19T05:30:09;27.47;;;10.03;;
3689;SDS011;1861;50.240;8.596;2023-10-19T05:32:37;22.27;;;10.07;;
3689;SDS011;1861;50.240;8.596;2023-10-19T05:35:06;32.17;;;11.87;;
3689;SDS011;1861;50.240;8.596;2023-10-19T05:37:37;21.10;;;9.60;;
3689;SDS011;1861;50.240;8.596;2023-10-19T05:40:07;24.40;;;10.60;;
3689;SDS011;1861;50.240;8.596;2023-10-19T05:42:39;23.30;;;11.60;;
3689;SDS011;1861;50.240;8.596;2023-10-19T05:45:07;25.37;;;11.30;;
3689;SDS011;1861;50.240;8.596;2023-10-19T05:47:39;27.00;;;10.70;;
3689;SDS011;1861;50.240;8.596;2023-10-19T05:50:08;35.00;;;13.30;;
3689;SDS011;1861;50.240;8.596;2023-10-19T05:52:40;25.23;;;10.87;;
3689;SDS011;1861;50.240;8.596;2023-10-19T05:55:10;24.87;;;10.43;;
3689;SDS011;1861;50.240;8.596;2023-10-19T05:57:39;29.40;;;10.80;;
3689;SDS011;1861;50.240;8.596;2023-10-19T06:00:08;26.17;;;11.63;;
3689;SDS011;1861;50.240;8.596;2023-10-19T06:02:41;34.63;;;11.83;;
3689;SDS011;1861;50.240;8.596;2023-10-19T06:05:11;23.00;;;10.70;;
3689;SDS011;1861;50.240;8.596;2023-10-19T06:07:42;33.30;;;12.80;;
3689;SDS011;1861;50.240;8.596;2023-10-19T06:10:12;31.03;;;12.43;;
3689;SDS011;1861;50.240;8.596;2023-10-19T06:12:44;28.23;;;11.60;;
3689;SDS011;1861;50.240;8.596;2023-10-19T06:15:13;29.33;;;11.40;;
3689;SDS011;1861;50.240;8.596;2023-10-19T06:17:43;23.03;;;11.10;;
3689;SDS011;1861;50.240;8.596;2023-10-19T06:20:12;22.13;;;9.73;;
3689;SDS011;1861;50.240;8.596;2023-10-19T06:22:50;30.93;;;11.97;;
3689;SDS011;1861;50.240;8.596;2023-10-19T06:25:20;27.07;;;13.17;;
3689;SDS011;1861;50.240;8.596;2023-10-19T06:27:50;31.00;;;11.73;;
3689;SDS011;1861;50.240;8.596;2023-10-19T06:30:19;25.80;;;11.20;;
3689;SDS011;1861;50.240;8.596;2023-10-19T06:32:50;27.53;;;11.70;;
3689;SDS011;1861;50.240;8.596;2023-10-19T06:35:19;32.23;;;11.93;;
3689;SDS011;1861;50.240;8.596;2023-10-19T06:37:48;24.27;;;10.37;;
3689;SDS011;1861;50.240;8.596;2023-10-19T06:40:16;25.80;;;12.00;;
3689;SDS011;1861;50.240;8.596;2023-10-19T06:42:46;25.23;;;11.13;;
3689;SDS011;1861;50.240;8.596;2023-10-19T06:45:15;30.77;;;11.87;;
3689;SDS011;1861;50.240;8.596;2023-10-19T06:47:46;29.37;;;12.23;;
3689;SDS011;1861;50.240;8.596;2023-10-19T06:50:17;31.97;;;13.60;;
3689;SDS011;1861;50.240;8.596;2023-10-19T06:52:46;31.63;;;12.80;;
3689;SDS011;1861;50.240;8.596;2023-10-19T06:55:15;32.83;;;13.13;;
3689;SDS011;1861;50.240;8.596;2023-10-19T06:57:48;32.70;;;13.30;;
3689;SDS011;1861;50.240;8.596;2023-10-19T07:00:18;25.63;;;11.80;;
3689;SDS011;1861;50.240;8.596;2023-10-19T07:02:47;30.77;;;13.40;;
3689;SDS011;1861;50.240;8.596;2023-10-19T07:05:17;32.20;;;14.50;;
3689;SDS011;1861;50.240;8.596;2023-10-19T07:07:48;25.53;;;11.40;;
3689;SDS011;1861;50.240;8.596;2023-10-19T07:10:18;27.67;;;12.77;;
3689;SDS011;1861;50.240;8.596;2023-10-19T07:12:50;32.77;;;13.97;;
3689;SDS011;1861;50.240;8.596;2023-10-19T07:15:20;34.80;;;13.90;;
3689;SDS011;1861;50.240;8.596;2023-10-19T07:17:49;33.33;;;13.60;;
3689;SDS011;1861;50.240;8.596;2023-10-19T07:20:19;31.60;;;13.30;;
3689;SDS011;1861;50.240;8.596;2023-10-19T07:22:53;30.37;;;12.67;;
3689;SDS011;1861;50.240;8.596;2023-10-19T07:25:22;32.10;;;12.10;;
3689;SDS011;1861;50.240;8.596;2023-10-19T07:27:53;31.03;;;14.00;;
3689;SDS011;1861;50.240;8.596;2023-10-19T07:30:22;31.67;;;14.60;;
3689;SDS011;1861;50.240;8.596;2023-10-19T07:32:53;30.37;;;13.73;;
3689;SDS011;1861;50.240;8.596;2023-10-19T07:35:25;30.53;;;12.93;;
3689;SDS011;1861;50.240;8.596;2023-10-19T07:37:54;26.80;;;12.77;;
3689;SDS011;1861;50.240;8.596;2023-10-19T07:40:23;31.40;;;13.90;;
3689;SDS011;1861;50.240;8.596;2023-10-19T07:42:53;31.93;;;14.50;;
3689;SDS011;1861;50.240;8.596;2023-10-19T07:45:21;28.13;;;13.70;;
3689;SDS011;1861;50.240;8.596;2023-10-19T07:47:50;27.27;;;13.47;;
3689;SDS011;1861;50.240;8.596;2023-10-19T07:50:18;34.60;;;14.40;;
3689;SDS011;1861;50.240;8.596;2023-10-19T07:52:49;29.30;;;13.63;;
3689;SDS011;1861;50.240;8.596;2023-10-19T07:55:20;31.80;;;15.20;;
3689;SDS011;1861;50.240;8.596;2023-10-19T07:57:50;31.27;;;13.70;;
3689;SDS011;1861;50.240;8.596;2023-10-19T08:00:22;29.87;;;13.23;;
3689;SDS011;1861;50.240;8.596;2023-10-19T08:02:51;33.93;;;15.00;;
3689;SDS011;1861;50.240;8.596;2023-10-19T08:05:20;35.03;;;14.23;;
3689;SDS011;1861;50.240;8.596;2023-10-19T08:07:49;34.37;;;13.87;;
3689;SDS011;1861;50.240;8.596;2023-10-19T08:10:18;27.03;;;13.50;;
3689;SDS011;1861;50.240;8.596;2023-10-19T08:12:48;29.00;;;13.60;;
3689;SDS011;1861;50.240;8.596;2023-10-19T08:15:18;29.03;;;13.50;;
3689;SDS011;1861;50.240;8.596;2023-10-19T08:17:48;26.53;;;13.13;;
3689;SDS011;1861;50.240;8.596;2023-10-19T08:20:20;34.83;;;13.87;;
3689;SDS011;1861;50.240;8.596;2023-10-19T08:22:57;36.40;;;13.53;;
3689;SDS011;1861;50.240;8.596;2023-10-19T08:25:28;32.67;;;15.03;;
3689;SDS011;1861;50.240;8.596;2023-10-19T08:27:59;30.30;;;13.80;;
3689;SDS011;1861;50.240;8.596;2023-10-19T08:30:28;32.80;;;14.90;;
3689;SDS011;1861;50.240;8.596;2023-10-19T08:32:57;28.93;;;14.17;;
3689;SDS011;1861;50.240;8.596;2023-10-19T08:35:26;32.90;;;14.57;;
3689;SDS011;1861;50.240;8.596;2023-10-19T08:37:54;28.93;;;13.30;;
3689;SDS011;1861;50.240;8.596;2023-10-19T08:40:25;31.13;;;13.87;;
3689;SDS011;1861;50.240;8.596;2023-10-19T08:42:54;31.47;;;14.53;;
3689;SDS011;1861;50.240;8.596;2023-10-19T08:45:23;28.67;;;13.90;;
3689;SDS011;1861;50.240;8.596;2023-10-19T08:47:53;30.07;;;15.17;;
3689;SDS011;1861;50.240;8.596;2023-10-19T08:50:25;35.57;;;14.73;;
3689;SDS011;1861;50.240;8.596;2023-10-19T08:52:55;31.77;;;13.67;;
3689;SDS011;1861;50.240;8.596;2023-10-19T08:55:24;34.90;;;13.97;;
3689;SDS011;1861;50.240;8.596;2023-10-19T08:58:14;32.80;;;14.33;;
3689;SDS011;1861;50.240;8.596;2023-10-19T09:00:45;29.33;;;13.50;;
3689;SDS011;1861;50.240;8.596;2023-10-19T09:03:16;27.57;;;13.73;;
3689;SDS011;1861;50.240;8.596;2023-10-19T09:05:46;30.93;;;13.63;;
3689;SDS011;1861;50.240;8.596;2023-10-19T09:08:15;29.47;;;13.50;;
3689;SDS011;1861;50.240;8.596;2023-10-19T09:10:45;30.73;;;15.00;;
3689;SDS011;1861;50.240;8.596;2023-10-19T09:13:13;29.00;;;14.93;;
3689;SDS011;1861;50.240;8.596;2023-10-19T09:15:46;27.10;;;14.40;;
3689;SDS011;1861;50.240;8.596;2023-10-19T09:18:16;31.27;;;13.60;;
3689;SDS011;1861;50.240;8.596;2023-10-19T09:20:47;31.37;;;14.10;;
3689;SDS011;1861;50.240;8.596;2023-10-19T09:23:29;28.37;;;13.20;;
3689;SDS011;1861;50.240;8.596;2023-10-19T09:25:58;34.23;;;14.70;;
3689;SDS011;1861;50.240;8.596;2023-10-19T09:28:29;26.40;;;13.37;;
3689;SDS011;1861;50.240;8.596;2023-10-19T09:31:00;30.57;;;14.80;;
3689;SDS011;1861;50.240;8.596;2023-10-19T09:33:30;30.60;;;15.00;;
3689;SDS011;1861;50.240;8.596;2023-10-19T09:36:02;30.27;;;14.80;;
3689;SDS011;1861;50.240;8.596;2023-10-19T09:38:39;36.47;;;14.97;;
3689;SDS011;1861;50.240;8.596;2023-10-19T09:41:11;28.07;;;13.63;;
3689;SDS011;1861;50.240;8.596;2023-10-19T09:43:42;38.37;;;16.13;;
3689;SDS011;1861;50.240;8.596;2023-10-19T09:46:12;32.90;;;14.90;;
3689;SDS011;1861;50.240;8.596;2023-10-19T09:48:48;33.57;;;14.73;;
3689;SDS011;1861;50.240;8.596;2023-10-19T09:51:19;33.47;;;16.03;;
3689;SDS011;1861;50.240;8.596;2023-10-19T09:53:51;33.37;;;14.53;;
3689;SDS011;1861;50.240;8.596;2023-10-19T09:56:26;36.83;;;14.50;;
3689;SDS011;1861;50.240;8.596;2023-10-19T09:59:00;36.23;;;15.80;;
3689;SDS011;1861;50.240;8.596;2023-10-19T10:04:32;37.37;;;14.50;;
3689;SDS011;1861;50.240;8.596;2023-10-19T10:07:03;33.53;;;16.03;;
3689;SDS011;1861;50.240;8.596;2023-10-19T10:09:34;36.33;;;15.73;;
3689;SDS011;1861;50.240;8.596;2023-10-19T10:12:20;32.17;;;15.53;;
3689;SDS011;1861;50.240;8.596;2023-10-19T10:14:54;33.87;;;15.60;;
3689;SDS011;1861;50.240;8.596;2023-10-19T10:17:24;37.30;;;14.80;;
3689;SDS011;1861;50.240;8.596;2023-10-19T10:19:55;36.37;;;15.50;;
3689;SDS011;1861;50.240;8.596;2023-10-19T10:22:28;36.00;;;14.80;;
3689;SDS011;1861;50.240;8.596;2023-10-19T10:24:56;32.60;;;14.97;;
3689;SDS011;1861;50.240;8.596;2023-10-19T10:27:24;32.83;;;14.87;;
3689;SDS011;1861;50.240;8.596;2023-10-19T10:29:56;37.07;;;16.20;;
3689;SDS011;1861;50.240;8.596;2023-10-19T10:32:42;33.07;;;14.50;;
3689;SDS011;1861;50.240;8.596;2023-10-19T10:38:25;32.47;;;14.60;;
3689;SDS011;1861;50.240;8.596;2023-10-19T10:41:01;31.40;;;15.10;;
3689;SDS011;1861;50.240;8.596;2023-10-19T10:43:30;32.43;;;15.80;;
3689;SDS011;1861;50.240;8.596;2023-10-19T10:46:04;38.40;;;15.93;;
3689;SDS011;1861;50.240;8.596;2023-10-19T10:48:34;35.40;;;14.90;;
3689;SDS011;1861;50.240;8.596;2023-10-19T10:51:14;35.47;;;15.70;;
3689;SDS011;1861;50.240;8.596;2023-10-19T10:53:47;35.27;;;15.07;;
3689;SDS011;1861;50.240;8.596;2023-10-19T10:56:16;34.97;;;15.70;;
3689;SDS011;1861;50.240;8.596;2023-10-19T10:58:45;34.03;;;16.50;;
3689;SDS011;1861;50.240;8.596;2023-10-19T11:01:13;37.03;;;16.10;;
3689;SDS011;1861;50.240;8.596;2023-10-19T11:03:42;34.77;;;15.20;;
3689;SDS011;1861;50.240;8.596;2023-10-19T11:06:10;45.00;;;17.07;;
3689;SDS011;1861;50.240;8.596;2023-10-19T11:08:39;34.63;;;16.07;;
3689;SDS011;1861;50.240;8.596;2023-10-19T11:11:09;31.70;;;15.37;;
3689;SDS011;1861;50.240;8.596;2023-10-19T11:13:38;37.33;;;16.07;;
3689;SDS011;1861;50.240;8.596;2023-10-19T11:16:07;34.77;;;16.57;;
3689;SDS011;1861;50.240;8.596;2023-10-19T11:18:36;35.40;;;15.80;;
3689;SDS011;1861;50.240;8.596;2023-10-19T11:21:07;39.03;;;18.03;;
3689;SDS011;1861;50.240;8.596;2023-10-19T11:23:37;40.40;;;15.50;;
3689;SDS011;1861;50.240;8.596;2023-10-19T11:26:08;33.50;;;14.80;;
3689;SDS011;1861;50.240;8.596;2023-10-19T11:28:37;40.03;;;16.13;;
3689;SDS011;1861;50.240;8.596;2023-10-19T11:31:13;37.90;;;16.10;;
3689;SDS011;1861;50.240;8.596;2023-10-19T11:33:44;38.47;;;17.00;;
3689;SDS011;1861;50.240;8.596;2023-10-19T11:36:15;34.77;;;16.80;;
3689;SDS011;1861;50.240;8.596;2023-10-19T11:38:45;43.20;;;17.33;;
3689;SDS011;1861;50.240;8.596;2023-10-19T11:41:16;38.17;;;15.97;;
3689;SDS011;1861;50.240;8.596;2023-10-19T11:43:45;40.23;;;15.60;;
3689;SDS011;1861;50.240;8.596;2023-10-19T11:46:14;38.73;;;17.20;;
3689;SDS011;1861;50.240;8.596;2023-10-19T11:48:44;43.07;;;17.17;;
3689;SDS011;1861;50.240;8.596;2023-10-19T11:51:13;42.77;;;18.07;;
3689;SDS011;1861;50.240;8.596;2023-10-19T11:53:42;38.63;;;16.10;;
3689;SDS011;1861;50.240;8.596;2023-10-19T11:56:11;47.60;;;17.60;;
3689;SDS011;1861;50.240;8.596;2023-10-19T11:58:43;39.47;;;16.00;;
3689;SDS011;1861;50.240;8.596;2023-10-19T12:01:14;41.20;;;17.60;;
3689;SDS011;1861;50.240;8.596;2023-10-19T12:03:44;43.87;;;17.70;;
3689;SDS011;1861;50.240;8.596;2023-10-19T12:06:13;44.80;;;17.17;;
3689;SDS011;1861;50.240;8.596;2023-10-19T12:08:46;40.77;;;16.73;;
3689;SDS011;1861;50.240;8.596;2023-10-19T12:11:14;37.50;;;16.20;;
3689;SDS011;1861;50.240;8.596;2023-10-19T12:13:44;39.77;;;17.83;;
3689;SDS011;1861;50.240;8.596;2023-10-19T12:16:14;47.73;;;18.20;;
3689;SDS011;1861;50.240;8.596;2023-10-19T12:18:43;37.70;;;17.33;;
3689;SDS011;1861;50.240;8.596;2023-10-19T12:21:12;39.50;;;17.30;;
3689;SDS011;1861;50.240;8.596;2023-10-19T12:23:41;39.40;;;16.53;;
3689;SDS011;1861;50.240;8.596;2023-10-19T12:26:10;43.80;;;17.77;;
3689;SDS011;1861;50.240;8.596;2023-10-19T12:28:39;30.73;;;15.00;;
3689;SDS011;1861;50.240;8.596;2023-10-19T12:31:12;38.33;;;15.90;;
3689;SDS011;1861;50.240;8.596;2023-10-19T12:33:41;35.47;;;15.57;;
3689;SDS011;1861;50.240;8.596;2023-10-19T12:36:11;36.13;;;16.13;;
3689;SDS011;1861;50.240;8.596;2023-10-19T12:38:57;33.37;;;16.30;;
3689;SDS011;1861;50.240;8.596;2023-10-19T12:41:27;35.57;;;15.30;;
3689;SDS011;1861;50.240;8.596;2023-10-19T12:43:55;37.63;;;18.60;;
3689;SDS011;1861;50.240;8.596;2023-10-19T12:46:26;37.77;;;16.50;;
3689;SDS011;1861;50.240;8.596;2023-10-19T12:48:56;36.97;;;16.17;;
3689;SDS011;1861;50.240;8.596;2023-10-19T12:51:25;39.97;;;16.73;;
3689;SDS011;1861;50.240;8.596;2023-10-19T12:53:53;31.33;;;15.17;;
3689;SDS011;1861;50.240;8.596;2023-10-19T12:56:22;33.63;;;15.90;;
3689;SDS011;1861;50.240;8.596;2023-10-19T12:58:51;32.43;;;14.13;;
3689;SDS011;1861;50.240;8.596;2023-10-19T13:01:21;27.80;;;15.00;;
3689;SDS011;1861;50.240;8.596;2023-10-19T13:03:50;31.50;;;14.80;;
3689;SDS011;1861;50.240;8.596;2023-10-19T13:06:19;28.60;;;13.13;;
3689;SDS011;1861;50.240;8.596;2023-10-19T13:08:50;31.43;;;14.40;;
3689;SDS011;1861;50.240;8.596;2023-10-19T13:11:18;28.40;;;14.00;;
3689;SDS011;1861;50.240;8.596;2023-10-19T13:13:46;26.10;;;13.80;;
3689;SDS011;1861;50.240;8.596;2023-10-19T13:16:15;29.63;;;14.17;;
3689;SDS011;1861;50.240;8.596;2023-10-19T13:18:43;31.13;;;15.10;;
3689;SDS011;1861;50.240;8.596;2023-10-19T13:21:13;31.40;;;14.77;;
3689;SDS011;1861;50.240;8.596;2023-10-19T13:23:48;35.03;;;15.80;;
3689;SDS011;1861;50.240;8.596;2023-10-19T13:26:17;30.43;;;14.40;;
3689;SDS011;1861;50.240;8.596;2023-10-19T13:28:45;33.00;;;15.20;;
3689;SDS011;1861;50.240;8.596;2023-10-19T13:31:15;34.90;;;16.13;;
3689;SDS011;1861;50.240;8.596;2023-10-19T13:33:46;34.37;;;16.00;;
3689;SDS011;1861;50.240;8.596;2023-10-19T13:36:15;36.53;;;16.60;;
3689;SDS011;1861;50.240;8.596;2023-10-19T13:38:44;30.47;;;15.20;;
3689;SDS011;1861;50.240;8.596;2023-10-19T13:41:12;36.70;;;17.57;;
3689;SDS011;1861;50.240;8.596;2023-10-19T13:43:43;41.40;;;17.00;;
3689;SDS011;1861;50.240;8.596;2023-10-19T13:46:11;30.13;;;15.27;;
3689;SDS011;1861;50.240;8.596;2023-10-19T13:48:40;34.83;;;15.27;;
3689;SDS011;1861;50.240;8.596;2023-10-19T13:51:09;33.43;;;15.23;;
3689;SDS011;1861;50.240;8.596;2023-10-19T13:53:42;33.60;;;15.77;;
3689;SDS011;1861;50.240;8.596;2023-10-19T13:56:12;28.73;;;14.13;;
3689;SDS011;1861;50.240;8.596;2023-10-19T13:58:41;34.93;;;15.10;;
3689;SDS011;1861;50.240;8.596;2023-10-19T14:01:09;28.17;;;14.70;;
3689;SDS011;1861;50.240;8.596;2023-10-19T14:03:41;27.60;;;14.90;;
3689;SDS011;1861;50.240;8.596;2023-10-19T14:06:11;30.50;;;14.63;;
3689;SDS011;1861;50.240;8.596;2023-10-19T14:08:42;30.73;;;14.80;;
3689;SDS011;1861;50.240;8.596;2023-10-19T14:11:10;34.80;;;15.23;;
3689;SDS011;1861;50.240;8.596;2023-10-19T14:13:38;31.13;;;14.10;;
3689;SDS011;1861;50.240;8.596;2023-10-19T14:16:09;35.43;;;15.77;;
3689;SDS011;1861;50.240;8.596;2023-10-19T14:18:38;30.30;;;13.93;;
3689;SDS011;1861;50.240;8.596;2023-10-19T14:21:13;32.70;;;17.20;;
3689;SDS011;1861;50.240;8.596;2023-10-19T14:23:44;30.30;;;15.00;;
3689;SDS011;1861;50.240;8.596;2023-10-19T14:26:12;34.57;;;15.63;;
3689;SDS011;1861;50.240;8.596;2023-10-19T14:28:41;36.63;;;15.80;;
3689;SDS011;1861;50.240;8.596;2023-10-19T14:31:09;32.90;;;16.10;;
3689;SDS011;1861;50.240;8.596;2023-10-19T14:33:38;39.70;;;16.60;;
3689;SDS011;1861;50.240;8.596;2023-10-19T14:36:07;37.63;;;17.03;;
3689;SDS011;1861;50.240;8.596;2023-10-19T14:38:36;49.10;;;17.37;;
3689;SDS011;1861;50.240;8.596;2023-10-19T14:41:07;35.00;;;16.17;;
3689;SDS011;1861;50.240;8.596;2023-10-19T14:43:36;34.23;;;16.40;;
3689;SDS011;1861;50.240;8.596;2023-10-19T14:46:05;41.13;;;15.87;;
3689;SDS011;1861;50.240;8.596;2023-10-19T14:48:34;32.67;;;15.47;;
3689;SDS011;1861;50.240;8.596;2023-10-19T14:51:03;39.63;;;18.43;;
3689;SDS011;1861;50.240;8.596;2023-10-19T14:53:32;33.13;;;15.93;;
3689;SDS011;1861;50.240;8.596;2023-10-19T14:56:01;37.10;;;17.67;;
3689;SDS011;1861;50.240;8.596;2023-10-19T14:58:30;34.07;;;15.50;;
3689;SDS011;1861;50.240;8.596;2023-10-19T15:00:58;34.03;;;16.07;;
3689;SDS011;1861;50.240;8.596;2023-10-19T15:03:27;32.97;;;16.30;;
3689;SDS011;1861;50.240;8.596;2023-10-19T15:05:56;42.50;;;18.77;;
3689;SDS011;1861;50.240;8.596;2023-10-19T15:08:26;33.97;;;16.03;;
3689;SDS011;1861;50.240;8.596;2023-10-19T15:10:58;41.07;;;17.33;;
3689;SDS011;1861;50.240;8.596;2023-10-19T15:13:26;38.50;;;16.87;;
3689;SDS011;1861;50.240;8.596;2023-10-19T15:15:56;34.17;;;17.37;;
3689;SDS011;1861;50.240;8.596;2023-10-19T15:18:24;43.20;;;18.27;;
3689;SDS011;1861;50.240;8.596;2023-10-19T15:20:52;40.63;;;17.03;;
3689;SDS011;1861;50.240;8.596;2023-10-19T15:23:20;41.57;;;17.70;;